sensor_id;sensor_type;location;lat;lon;timestamp;pressure;altitude;pressure_sealevel;temperature;humidity
54546;BME280;40444;45.184;9.850;2022-11-15T17:23:58;100681.59;;;9.05;100.00
54546;BME280;40444;45.184;9.850;2022-11-15T17:26:26;100683.25;;;9.17;100.00
54546;BME280;40444;45.184;9.850;2022-11-15T17:28:58;100680.41;;;9.30;100.00
54546;BME280;40444;45.184;9.850;2022-11-15T17:31:29;100689.22;;;9.42;100.00
54546;BME280;40444;45.184;9.850;2022-11-15T17:34:01;100681.19;;;9.53;100.00
54546;BME280;40444;45.184;9.850;2022-11-15T17:36:29;100677.88;;;9.60;100.00
54546;BME280;40444;45.184;9.850;2022-11-15T17:38:58;100681.59;;;9.69;100.00
54546;BME280;40444;45.184;9.850;2022-11-15T17:41:27;100686.16;;;9.78;100.00
54546;BME280;40444;45.184;9.850;2022-11-15T17:43:57;100685.63;;;9.84;100.00
54546;BME280;40444;45.184;9.850;2022-11-15T17:46:27;100682.41;;;9.91;100.00
54546;BME280;40444;45.184;9.850;2022-11-15T17:48:56;100678.38;;;9.96;100.00
54546;BME280;40444;45.184;9.850;2022-11-15T17:51:25;100678.00;;;10.01;100.00
54546;BME280;40444;45.184;9.850;2022-11-15T17:53:54;100685.03;;;10.02;100.00
54546;BME280;40444;45.184;9.850;2022-11-15T17:56:24;100679.28;;;10.06;100.00
54546;BME280;40444;45.184;9.850;2022-11-15T17:58:56;100671.13;;;10.08;100.00
54546;BME280;40444;45.184;9.850;2022-11-15T18:01:30;100676.34;;;10.09;100.00
54546;BME280;40444;45.184;9.850;2022-11-15T18:03:59;100675.38;;;10.10;100.00
54546;BME280;40444;45.184;9.850;2022-11-15T18:06:31;100674.22;;;10.13;100.00
54546;BME280;40444;45.184;9.850;2022-11-15T18:09:00;100682.16;;;10.15;100.00
54546;BME280;40444;45.184;9.850;2022-11-15T18:11:32;100680.31;;;10.15;100.00
54546;BME280;40444;45.184;9.850;2022-11-15T18:14:03;100672.16;;;10.17;100.00
54546;BME280;40444;45.184;9.850;2022-11-15T18:16:34;100674.72;;;10.18;100.00
54546;BME280;40444;45.184;9.850;2022-11-15T18:19:03;100667.38;;;10.20;100.00
54546;BME280;40444;45.184;9.850;2022-11-15T18:21:43;100667.22;;;10.22;100.00
54546;BME280;40444;45.184;9.850;2022-11-15T18:24:32;100665.28;;;10.24;100.00
54546;BME280;40444;45.184;9.850;2022-11-15T18:27:03;100659.94;;;10.24;100.00
54546;BME280;40444;45.184;9.850;2022-11-15T18:29:31;100659.94;;;10.24;100.00
54546;BME280;40444;45.184;9.850;2022-11-15T18:32:03;100654.56;;;10.24;100.00
54546;BME280;40444;45.184;9.850;2022-11-15T18:34:38;100647.53;;;10.23;100.00
54546;BME280;40444;45.184;9.850;2022-11-15T18:37:06;100646.50;;;10.14;100.00
54546;BME280;40444;45.184;9.850;2022-11-15T18:39:35;100653.81;;;10.12;100.00
54546;BME280;40444;45.184;9.850;2022-11-15T18:42:03;100657.22;;;10.14;100.00
54546;BME280;40444;45.184;9.850;2022-11-15T18:44:31;100650.88;;;10.15;100.00
54546;BME280;40444;45.184;9.850;2022-11-15T18:47:00;100642.69;;;10.17;100.00
54546;BME280;40444;45.184;9.850;2022-11-15T18:49:28;100642.59;;;10.18;100.00
54546;BME280;40444;45.184;9.850;2022-11-15T18:51:57;100638.91;;;10.19;100.00
54546;BME280;40444;45.184;9.850;2022-11-15T18:54:25;100637.94;;;10.20;100.00
54546;BME280;40444;45.184;9.850;2022-11-15T18:56:58;100640.47;;;10.22;100.00
54546;BME280;40444;45.184;9.850;2022-11-15T18:59:28;100642.28;;;10.21;100.00
54546;BME280;40444;45.184;9.850;2022-11-15T19:01:56;100639.91;;;10.18;100.00
54546;BME280;40444;45.184;9.850;2022-11-15T19:04:24;100636.25;;;10.19;100.00
54546;BME280;40444;45.184;9.850;2022-11-15T19:06:53;100626.50;;;10.18;100.00
54546;BME280;40444;45.184;9.850;2022-11-15T19:09:21;100634.41;;;10.20;100.00
54546;BME280;40444;45.184;9.850;2022-11-15T19:11:57;100634.41;;;10.20;100.00
54546;BME280;40444;45.184;9.850;2022-11-15T19:14:26;100627.34;;;10.19;100.00
54546;BME280;40444;45.184;9.850;2022-11-15T19:16:55;100621.00;;;10.20;100.00
54546;BME280;40444;45.184;9.850;2022-11-15T19:19:25;100623.69;;;10.20;100.00
54546;BME280;40444;45.184;9.850;2022-11-15T19:21:55;100620.03;;;10.21;100.00
54546;BME280;40444;45.184;9.850;2022-11-15T19:24:26;100612.00;;;10.21;100.00
54546;BME280;40444;45.184;9.850;2022-11-15T19:26:56;100611.16;;;10.20;100.00
54546;BME280;40444;45.184;9.850;2022-11-15T19:29:25;100618.19;;;10.21;100.00
54546;BME280;40444;45.184;9.850;2022-11-15T19:31:53;100608.31;;;10.22;100.00
54546;BME280;40444;45.184;9.850;2022-11-15T19:34:23;100608.22;;;10.23;100.00
54546;BME280;40444;45.184;9.850;2022-11-15T19:36:52;100602.00;;;10.23;100.00
54546;BME280;40444;45.184;9.850;2022-11-15T19:39:21;100600.28;;;10.22;100.00
54546;BME280;40444;45.184;9.850;2022-11-15T19:41:49;100594.09;;;10.21;100.00
54546;BME280;40444;45.184;9.850;2022-11-15T19:44:17;100595.78;;;10.22;100.00
54546;BME280;40444;45.184;9.850;2022-11-15T19:46:47;100594.94;;;10.22;100.00
54546;BME280;40444;45.184;9.850;2022-11-15T19:49:16;100601.13;;;10.22;100.00
54546;BME280;40444;45.184;9.850;2022-11-15T19:51:44;100599.34;;;10.23;100.00
54546;BME280;40444;45.184;9.850;2022-11-15T19:54:15;100599.34;;;10.23;100.00
54546;BME280;40444;45.184;9.850;2022-11-15T19:56:44;100591.31;;;10.23;100.00
54546;BME280;40444;45.184;9.850;2022-11-15T19:59:13;100588.63;;;10.23;100.00
54546;BME280;40444;45.184;9.850;2022-11-15T20:01:42;100583.25;;;10.23;100.00
54546;BME280;40444;45.184;9.850;2022-11-15T20:04:11;100585.94;;;10.23;100.00
54546;BME280;40444;45.184;9.850;2022-11-15T20:06:41;100588.50;;;10.24;100.00
54546;BME280;40444;45.184;9.850;2022-11-15T20:09:11;100589.47;;;10.23;100.00
54546;BME280;40444;45.184;9.850;2022-11-15T20:11:40;100588.50;;;10.24;100.00
54546;BME280;40444;45.184;9.850;2022-11-15T20:14:09;100592.16;;;10.23;100.00
54546;BME280;40444;45.184;9.850;2022-11-15T20:16:40;100590.31;;;10.24;100.00
54546;BME280;40444;45.184;9.850;2022-11-15T20:19:09;100589.47;;;10.23;100.00
54546;BME280;40444;45.184;9.850;2022-11-15T20:21:39;100585.84;;;10.24;100.00
54546;BME280;40444;45.184;9.850;2022-11-15T20:24:08;100584.97;;;10.24;100.00
54546;BME280;40444;45.184;9.850;2022-11-15T20:26:36;100581.31;;;10.25;100.00
54546;BME280;40444;45.184;9.850;2022-11-15T20:29:06;100568.16;;;10.22;100.00
54546;BME280;40444;45.184;9.850;2022-11-15T20:31:36;100571.56;;;10.24;100.00
54546;BME280;40444;45.184;9.850;2022-11-15T20:34:05;100571.56;;;10.24;100.00
54546;BME280;40444;45.184;9.850;2022-11-15T20:36:34;100561.84;;;10.23;100.00
54546;BME280;40444;45.184;9.850;2022-11-15T20:39:02;100564.78;;;10.20;100.00
54546;BME280;40444;45.184;9.850;2022-11-15T20:41:33;100561.53;;;10.16;100.00
54546;BME280;40444;45.184;9.850;2022-11-15T20:44:01;100557.31;;;10.13;100.00
54546;BME280;40444;45.184;9.850;2022-11-15T20:46:30;100560.94;;;10.12;100.00
54546;BME280;40444;45.184;9.850;2022-11-15T20:48:59;100559.97;;;10.13;100.00
54546;BME280;40444;45.184;9.850;2022-11-15T20:51:27;100549.38;;;10.12;100.00
54546;BME280;40444;45.184;9.850;2022-11-15T20:53:56;100544.88;;;10.12;100.00
54546;BME280;40444;45.184;9.850;2022-11-15T20:56:24;100553.06;;;10.11;100.00
54546;BME280;40444;45.184;9.850;2022-11-15T20:58:53;100553.31;;;10.08;100.00
54546;BME280;40444;45.184;9.850;2022-11-15T21:01:23;100549.78;;;10.07;100.00
54546;BME280;40444;45.184;9.850;2022-11-15T21:03:54;100547.13;;;10.07;100.00
54546;BME280;40444;45.184;9.850;2022-11-15T21:06:23;100538.97;;;10.09;100.00
54546;BME280;40444;45.184;9.850;2022-11-15T21:08:53;100545.28;;;10.08;100.00
54546;BME280;40444;45.184;9.850;2022-11-15T21:11:40;100527.53;;;10.07;100.00
54546;BME280;40444;45.184;9.850;2022-11-15T21:14:27;100526.97;;;10.13;100.00
54546;BME280;40444;45.184;9.850;2022-11-15T21:16:56;100526.53;;;10.08;100.00
54546;BME280;40444;45.184;9.850;2022-11-15T21:19:25;100518.66;;;10.06;100.00
54546;BME280;40444;45.184;9.850;2022-11-15T21:22:03;100518.91;;;10.03;100.00
54546;BME280;40444;45.184;9.850;2022-11-15T21:24:31;100517.09;;;10.04;100.00
54546;BME280;40444;45.184;9.850;2022-11-15T21:27:00;100511.63;;;10.05;100.00
54546;BME280;40444;45.184;9.850;2022-11-15T21:29:28;100509.63;;;9.98;100.00
54546;BME280;40444;45.184;9.850;2022-11-15T21:32:20;100497.00;;;9.79;100.00
54546;BME280;40444;45.184;9.850;2022-11-15T21:34:48;100505.34;;;9.85;100.00
54546;BME280;40444;45.184;9.850;2022-11-15T21:37:17;100506.91;;;9.88;100.00
54546;BME280;40444;45.184;9.850;2022-11-15T21:39:46;100499.88;;;9.87;100.00
54546;BME280;40444;45.184;9.850;2022-11-15T21:42:14;100501.41;;;9.90;100.00
54546;BME280;40444;45.184;9.850;2022-11-15T21:44:42;100499.31;;;9.93;100.00
54546;BME280;40444;45.184;9.850;2022-11-15T21:47:11;100492.84;;;9.96;100.00
54546;BME280;40444;45.184;9.850;2022-11-15T21:49:39;100484.25;;;9.92;100.00
54546;BME280;40444;45.184;9.850;2022-11-15T21:52:08;100473.66;;;9.91;100.00
54546;BME280;40444;45.184;9.850;2022-11-15T21:54:36;100465.63;;;9.91;100.00
54546;BME280;40444;45.184;9.850;2022-11-15T21:57:06;100462.66;;;9.84;100.00
54546;BME280;40444;45.184;9.850;2022-11-15T21:59:34;100472.53;;;9.83;100.00
54546;BME280;40444;45.184;9.850;2022-11-15T22:02:22;100471.69;;;9.83;100.00
54546;BME280;40444;45.184;9.850;2022-11-15T22:04:51;100472.53;;;9.83;100.00
54546;BME280;40444;45.184;9.850;2022-11-15T22:07:19;100469.56;;;9.86;100.00
54546;BME280;40444;45.184;9.850;2022-11-15T22:09:47;100467.19;;;9.83;100.00
54546;BME280;40444;45.184;9.850;2022-11-15T22:12:16;100459.66;;;9.77;100.00
54546;BME280;40444;45.184;9.850;2022-11-15T22:14:44;100452.94;;;9.83;100.00
54546;BME280;40444;45.184;9.850;2022-11-15T22:17:15;100449.97;;;9.86;100.00
54546;BME280;40444;45.184;9.850;2022-11-15T22:19:44;100456.06;;;9.88;100.00
54546;BME280;40444;45.184;9.850;2022-11-15T22:22:19;100437.41;;;9.77;100.00
54546;BME280;40444;45.184;9.850;2022-11-15T22:24:48;100438.16;;;9.88;100.00
54546;BME280;40444;45.184;9.850;2022-11-15T22:27:19;100431.56;;;9.93;100.00
54546;BME280;40444;45.184;9.850;2022-11-15T22:29:47;100413.81;;;9.92;100.00
54546;BME280;40444;45.184;9.850;2022-11-15T22:32:15;100412.56;;;9.96;100.00
54546;BME280;40444;45.184;9.850;2022-11-15T22:34:44;100411.41;;;9.88;100.00
54546;BME280;40444;45.184;9.850;2022-11-15T22:37:12;100419.84;;;9.84;100.00
54546;BME280;40444;45.184;9.850;2022-11-15T22:39:48;100424.34;;;9.83;100.00
54546;BME280;40444;45.184;9.850;2022-11-15T22:42:16;100415.59;;;9.81;100.00
54546;BME280;40444;45.184;9.850;2022-11-15T22:44:50;100415.19;;;9.86;100.00
54546;BME280;40444;45.184;9.850;2022-11-15T22:47:18;100418.72;;;9.86;100.00
54546;BME280;40444;45.184;9.850;2022-11-15T22:49:47;100413.09;;;9.90;100.00
54546;BME280;40444;45.184;9.850;2022-11-15T22:52:15;100406.75;;;9.91;100.00
54546;BME280;40444;45.184;9.850;2022-11-15T22:54:43;100407.47;;;9.93;100.00
54546;BME280;40444;45.184;9.850;2022-11-15T22:57:12;100405.38;;;9.96;100.00
54546;BME280;40444;45.184;9.850;2022-11-15T22:59:40;100401.44;;;10.00;100.00
54546;BME280;40444;45.184;9.850;2022-11-15T23:02:09;100397.03;;;9.99;100.00
54546;BME280;40444;45.184;9.850;2022-11-15T23:04:37;100396.78;;;10.02;100.00
54546;BME280;40444;45.184;9.850;2022-11-15T23:07:06;100385.09;;;10.03;100.00
54546;BME280;40444;45.184;9.850;2022-11-15T23:09:35;100385.81;;;10.05;100.00
54546;BME280;40444;45.184;9.850;2022-11-15T23:12:04;100382.28;;;10.05;100.00
54546;BME280;40444;45.184;9.850;2022-11-15T23:14:51;100371.28;;;10.08;100.00
54546;BME280;40444;45.184;9.850;2022-11-15T23:17:19;100372.28;;;10.07;100.00
54546;BME280;40444;45.184;9.850;2022-11-15T23:19:47;100368.91;;;10.05;100.00
54546;BME280;40444;45.184;9.850;2022-11-15T23:22:16;100357.88;;;10.08;100.00
54546;BME280;40444;45.184;9.850;2022-11-15T23:25:03;100354.38;;;10.07;100.00
54546;BME280;40444;45.184;9.850;2022-11-15T23:27:32;100358.03;;;10.06;100.00
54546;BME280;40444;45.184;9.850;2022-11-15T23:30:00;100352.53;;;10.08;100.00
54546;BME280;40444;45.184;9.850;2022-11-15T23:32:47;100340.88;;;10.09;100.00
54546;BME280;40444;45.184;9.850;2022-11-15T23:35:34;100333.81;;;10.08;100.00
54546;BME280;40444;45.184;9.850;2022-11-15T23:38:02;100323.25;;;10.06;100.00
54546;BME280;40444;45.184;9.850;2022-11-15T23:40:30;100318.88;;;10.05;100.00
54546;BME280;40444;45.184;9.850;2022-11-15T23:42:59;100313.53;;;10.05;100.00
54546;BME280;40444;45.184;9.850;2022-11-15T23:45:27;100313.53;;;10.05;100.00
54546;BME280;40444;45.184;9.850;2022-11-15T23:47:56;100311.53;;;10.07;100.00
54546;BME280;40444;45.184;9.850;2022-11-15T23:50:28;100306.19;;;10.07;100.00
54546;BME280;40444;45.184;9.850;2022-11-15T23:52:56;100300.84;;;10.07;100.00
54546;BME280;40444;45.184;9.850;2022-11-15T23:55:25;100310.53;;;10.08;100.00
54546;BME280;40444;45.184;9.850;2022-11-15T23:57:53;100309.72;;;10.08;100.00
